Farmington, West Virginia
Current Conditions -  °F | °C
As of 10:53 AM on Friday 21 Nov 2014 (Local Time) from KCKB Reporting Station
Few Clouds Few Clouds  
Wind Chill: 19°   Ceiling: Unl
Heat Index: 27°   Visibility: 10mi
Dew Point:   Wind: 8mph
Humidity: 47%   Direction: 310°NW
Pressure: 30.46"   Gusts: NA
Location:  39.51°N, 80.25°W
Report Text: KCKB 211553Z 31007KT 270V330 10SM FEW036 M03/M13 A3046 RMK AO2 SLP324 T10281128
Loading
Personal Weather Stations






























Interactive Weather Map New forecast layout! Learn more

10-Day Weather Forecast

Advertisements
Track Severe Weather on mobile